Time;durP1;ratioP1;P1;durP2;ratioP2;P2;SDS_P1;SDS_P2;PMS_P1;PMS_P2;Temp;Humidity;BMP_temperature;BMP_pressure;BME280_temperature;BME280_humidity;BME280_pressure;Samples;Min_cycle;Max_cycle;Signal;HPM_P1;HPM_P2
2023/06/14 00:02:08;;;;;;;6.10;4.20;;;;;;;23.06;35.86;100106.06;4963116;28;20304;-76
2023/06/14 00:04:36;;;;;;;6.80;4.47;;;;;;;23.07;35.81;100109.59;4962413;28;20231;-77
2023/06/14 00:07:04;;;;;;;7.23;4.50;;;;;;;23.06;35.82;100110.66;4961381;28;20240;-77
2023/06/14 00:09:33;;;;;;;7.97;4.80;;;;;;;23.06;35.83;100106.06;4960573;28;20214;-75
2023/06/14 00:12:01;;;;;;;9.70;4.47;;;;;;;23.07;35.70;100104.19;4964816;28;20302;-75
2023/06/14 00:14:29;;;;;;;7.38;4.85;;;;;;;23.04;35.52;100108.22;4963282;28;20219;-75
2023/06/14 00:16:58;;;;;;;8.20;5.47;;;;;;;23.02;35.62;100106.81;4960627;28;20784;-76
2023/06/14 00:19:26;;;;;;;6.07;4.37;;;;;;;22.99;35.64;100105.38;4962561;28;20228;-77
2023/06/14 00:21:54;;;;;;;7.35;4.53;;;;;;;22.99;35.88;100104.56;4962192;28;20203;-76
2023/06/14 00:24:22;;;;;;;9.77;5.50;;;;;;;22.96;35.86;100105.03;4960660;28;20238;-75
2023/06/14 00:26:51;;;;;;;8.40;4.63;;;;;;;22.93;35.85;100106.34;4962063;28;20241;-76
2023/06/14 00:29:18;;;;;;;7.37;4.70;;;;;;;22.88;36.04;100106.22;4966586;28;20206;-76
2023/06/14 00:31:46;;;;;;;7.43;4.97;;;;;;;22.84;35.90;100103.19;4962231;28;20307;-75
2023/06/14 00:34:14;;;;;;;7.40;4.60;;;;;;;22.81;35.88;100106.34;4957542;28;20207;-75
2023/06/14 00:36:41;;;;;;;9.67;4.77;;;;;;;22.78;36.26;100108.72;4963487;28;20203;-75
2023/06/14 00:39:09;;;;;;;10.90;5.07;;;;;;;22.78;36.11;100104.13;4963660;28;20336;-75
2023/06/14 00:41:37;;;;;;;6.93;4.70;;;;;;;22.75;36.32;100104.59;4961178;28;20233;-75
2023/06/14 00:44:06;;;;;;;10.83;5.57;;;;;;;22.75;36.26;100109.19;4961157;28;20209;-75
2023/06/14 00:46:34;;;;;;;8.57;4.80;;;;;;;22.71;36.28;100105.28;4964255;28;20235;-76
2023/06/14 00:49:03;;;;;;;8.13;5.17;;;;;;;22.67;36.34;100104.13;4961961;28;20341;-76
2023/06/14 00:51:31;;;;;;;10.43;5.13;;;;;;;22.65;36.42;100109.75;4960941;28;20246;-76
2023/06/14 00:53:58;;;;;;;6.17;4.87;;;;;;;22.66;36.28;100106.00;4963807;28;20208;-75
2023/06/14 00:56:27;;;;;;;8.97;5.50;;;;;;;22.67;36.48;100106.81;4963108;28;20211;-75
2023/06/14 00:58:55;;;;;;;9.97;5.47;;;;;;;22.62;36.75;100102.09;4960930;28;20262;-76
2023/06/14 01:01:25;;;;;;;7.87;5.60;;;;;;;22.59;36.69;100108.00;4963166;28;20318;-77
2023/06/14 01:03:53;;;;;;;14.43;5.10;;;;;;;22.55;36.87;100103.28;4958597;28;20243;-76
2023/06/14 01:06:32;;;;;;;12.10;5.40;;;;;;;22.54;36.58;100107.88;4961829;28;20689;-75
2023/06/14 01:09:08;;;;;;;8.40;5.50;;;;;;;22.53;36.86;100107.03;4961872;28;20203;-75
2023/06/14 01:11:41;;;;;;;7.77;5.07;;;;;;;22.50;36.98;100114.81;4959423;28;20207;-75
2023/06/14 01:14:12;;;;;;;8.67;5.30;;;;;;;22.50;37.10;100118.34;4965263;28;20207;-77
2023/06/14 01:16:41;;;;;;;8.23;5.23;;;;;;;22.49;36.74;100115.88;4963421;28;20290;-77
2023/06/14 01:19:13;;;;;;;9.30;5.27;;;;;;;22.46;36.82;100121.72;4964097;28;20688;-77
2023/06/14 01:21:42;;;;;;;8.13;5.17;;;;;;;22.44;37.10;100126.53;4959594;28;20208;-76
2023/06/14 01:24:11;;;;;;;7.63;5.50;;;;;;;22.42;36.87;100116.00;4957520;28;20744;-76
2023/06/14 01:26:45;;;;;;;10.47;5.80;;;;;;;22.39;37.28;100121.03;4960366;28;20207;-77
2023/06/14 01:29:17;;;;;;;8.07;5.77;;;;;;;22.33;37.50;100120.09;4960558;28;20226;-75
2023/06/14 01:31:46;;;;;;;9.10;5.23;;;;;;;22.30;37.29;100123.25;4958959;28;21229;-76
2023/06/14 01:34:14;;;;;;;11.53;6.20;;;;;;;22.28;37.49;100125.34;4959151;28;20202;-77
2023/06/14 01:36:44;;;;;;;13.23;5.97;;;;;;;22.26;37.21;100122.03;4959929;28;20275;-76
2023/06/14 01:39:16;;;;;;;12.87;5.60;;;;;;;22.29;37.31;100126.16;4960736;28;20324;-76
2023/06/14 01:41:45;;;;;;;7.83;5.37;;;;;;;22.23;37.40;100127.94;4961733;28;20225;-77
2023/06/14 01:44:16;;;;;;;7.23;5.07;;;;;;;22.21;37.61;100121.09;4959835;28;20294;-75
2023/06/14 01:46:44;;;;;;;8.37;5.47;;;;;;;22.20;37.72;100123.00;4958441;28;20211;-75
2023/06/14 01:49:12;;;;;;;9.73;5.83;;;;;;;22.18;37.83;100121.56;4960282;28;20215;-77
2023/06/14 01:51:40;;;;;;;9.70;5.30;;;;;;;22.11;37.64;100127.06;4961975;28;20277;-76
2023/06/14 01:54:08;;;;;;;7.67;4.97;;;;;;;22.05;37.69;100131.53;4960129;28;20306;-76
2023/06/14 01:56:37;;;;;;;8.50;5.57;;;;;;;22.01;37.68;100130.34;4956292;28;20326;-76
2023/06/14 01:59:04;;;;;;;8.67;5.80;;;;;;;22.01;37.90;100130.34;4959444;28;20252;-76
2023/06/14 02:01:34;;;;;;;8.93;5.40;;;;;;;22.02;37.86;100132.00;4961685;28;20258;-76
2023/06/14 02:04:02;;;;;;;8.73;5.27;;;;;;;21.97;38.04;100129.16;4958585;28;20902;-77
2023/06/14 02:06:29;;;;;;;7.03;5.50;;;;;;;21.94;37.97;100137.69;4957390;28;20223;-76
2023/06/14 02:08:57;;;;;;;11.70;5.43;;;;;;;21.91;38.12;100127.34;4958419;28;20226;-77
2023/06/14 02:11:25;;;;;;;10.97;5.43;;;;;;;21.86;38.19;100132.63;4957225;28;20230;-76
2023/06/14 02:13:56;;;;;;;7.10;5.30;;;;;;;21.89;38.05;100129.47;4958646;28;20222;-76
2023/06/14 02:16:24;;;;;;;16.50;5.37;;;;;;;21.84;38.27;100123.91;4960652;28;20218;-76
2023/06/14 02:18:52;;;;;;;11.77;5.90;;;;;;;21.84;38.31;100132.00;4957935;28;20254;-77
2023/06/14 02:21:20;;;;;;;7.70;5.80;;;;;;;21.81;38.12;100135.19;4958677;28;20221;-75
2023/06/14 02:23:47;;;;;;;6.97;4.53;;;;;;;21.79;37.86;100131.91;4960862;28;20603;-76
2023/06/14 02:26:15;;;;;;;8.43;5.03;;;;;;;21.78;38.21;100136.47;4960826;28;20215;-76
2023/06/14 02:28:43;;;;;;;7.50;4.90;;;;;;;21.75;37.99;100131.50;4958318;28;20231;-76
2023/06/14 02:31:12;;;;;;;9.93;5.00;;;;;;;21.72;38.03;100137.34;4958075;28;20298;-76
2023/06/14 02:33:40;;;;;;;7.30;4.83;;;;;;;21.68;38.14;100132.66;4961723;28;20215;-76
2023/06/14 02:36:07;;;;;;;7.10;5.07;;;;;;;21.68;38.39;100138.88;4960402;28;20338;-76
2023/06/14 02:38:35;;;;;;;8.77;4.87;;;;;;;21.67;38.58;100133.72;4965049;28;20341;-75
2023/06/14 02:41:04;;;;;;;7.53;5.30;;;;;;;21.63;38.45;100133.38;4958646;28;20654;-77
2023/06/14 02:43:31;;;;;;;8.10;5.40;;;;;;;21.63;38.63;100135.25;4960421;28;20290;-76
2023/06/14 02:45:59;;;;;;;8.87;5.40;;;;;;;21.59;38.61;100142.13;4958712;28;20262;-75
2023/06/14 02:48:29;;;;;;;9.00;5.47;;;;;;;21.56;38.59;100131.78;4960438;28;20325;-76
2023/06/14 02:50:56;;;;;;;10.67;5.37;;;;;;;21.53;38.47;100134.94;4959835;28;20212;-76
2023/06/14 02:53:24;;;;;;;9.23;5.23;;;;;;;21.54;38.54;100128.50;4959161;28;20289;-75
2023/06/14 02:55:52;;;;;;;8.57;4.90;;;;;;;21.52;38.78;100141.41;4957702;28;20234;-77
2023/06/14 02:58:24;;;;;;;9.73;5.43;;;;;;;21.50;38.64;100140.78;4959986;28;20234;-76
2023/06/14 03:00:53;;;;;;;6.90;4.50;;;;;;;21.45;38.58;100140.66;4961891;28;20618;-76
2023/06/14 03:03:21;;;;;;;11.33;5.53;;;;;;;21.41;38.63;100142.97;4962562;28;20346;-75
2023/06/14 03:05:52;;;;;;;6.93;5.00;;;;;;;21.42;38.76;100141.94;4957375;28;20926;-77
2023/06/14 03:08:19;;;;;;;10.93;5.93;;;;;;;21.43;38.68;100148.16;4959378;28;20213;-75
2023/06/14 03:10:48;;;;;;;10.07;5.13;;;;;;;21.36;38.98;100142.84;4960559;28;20250;-75
2023/06/14 03:13:17;;;;;;;11.83;6.00;;;;;;;21.29;38.73;100142.91;4961238;28;20962;-76
2023/06/14 03:15:45;;;;;;;9.80;5.43;;;;;;;21.27;39.09;100147.72;4958284;28;20211;-76
2023/06/14 03:18:12;;;;;;;7.53;5.20;;;;;;;21.25;38.75;100152.50;4957996;28;20733;-76
2023/06/14 03:20:40;;;;;;;10.20;5.47;;;;;;;21.30;38.98;100141.03;4954905;28;20302;-76
2023/06/14 03:23:09;;;;;;;7.80;5.57;;;;;;;21.29;39.03;100151.00;4955409;28;20234;-78
2023/06/14 03:25:38;;;;;;;9.40;5.40;;;;;;;21.24;38.93;100158.13;4964049;28;20206;-75
2023/06/14 03:28:06;;;;;;;11.00;5.50;;;;;;;21.21;39.18;100155.88;4963691;28;20533;-77
2023/06/14 03:30:33;;;;;;;8.60;5.80;;;;;;;21.20;39.30;100159.59;4965220;28;20318;-76
2023/06/14 03:33:01;;;;;;;9.40;5.50;;;;;;;21.21;39.17;100166.66;4963339;28;20566;-75
2023/06/14 03:35:30;;;;;;;9.10;5.70;;;;;;;21.19;39.33;100169.59;4963343;28;20898;-76
2023/06/14 03:37:57;;;;;;;7.97;5.10;;;;;;;21.19;39.15;100169.59;4961228;28;20258;-75
2023/06/14 03:40:27;;;;;;;10.23;5.77;;;;;;;21.17;38.98;100176.22;4965133;28;20273;-76
2023/06/14 03:42:55;;;;;;;8.77;5.33;;;;;;;21.16;39.28;100177.25;4964574;28;20265;-76
2023/06/14 03:45:22;;;;;;;11.20;5.20;;;;;;;21.13;39.63;100178.53;4962599;28;20234;-76
2023/06/14 03:47:51;;;;;;;10.17;5.97;;;;;;;21.11;39.26;100180.63;4964379;28;20301;-76
2023/06/14 03:50:19;;;;;;;8.33;5.30;;;;;;;21.11;39.13;100183.31;4964966;28;20302;-76
2023/06/14 03:52:50;;;;;;;7.50;5.43;;;;;;;21.10;39.53;100181.69;4964079;28;20649;-76
2023/06/14 03:55:18;;;;;;;9.37;5.53;;;;;;;21.12;39.21;100187.66;4960433;28;20211;-77
2023/06/14 03:57:50;;;;;;;8.50;4.97;;;;;;;21.06;39.56;100185.88;4960026;28;20664;-75
2023/06/14 04:00:18;;;;;;;11.60;4.90;;;;;;;20.98;39.68;100186.16;4964767;28;20652;-76
2023/06/14 04:02:46;;;;;;;8.20;5.10;;;;;;;20.96;39.68;100189.06;4962076;28;20207;-76
2023/06/14 04:05:16;;;;;;;9.40;5.33;;;;;;;21.00;39.65;100202.94;4963458;28;20854;-76
2023/06/14 04:07:46;;;;;;;8.10;5.63;;;;;;;21.00;39.81;100205.63;4965093;28;20211;-76
2023/06/14 04:10:14;;;;;;;10.87;5.37;;;;;;;20.95;39.88;100200.06;4963972;28;20669;-75
2023/06/14 04:12:41;;;;;;;7.13;4.80;;;;;;;20.95;39.78;100203.59;4964911;28;20215;-77
2023/06/14 04:15:13;;;;;;;8.87;4.83;;;;;;;20.97;39.98;100204.19;4963466;28;20207;-76
2023/06/14 04:17:48;;;;;;;9.10;5.00;;;;;;;21.00;40.07;100203.75;4963031;28;20288;-76
2023/06/14 04:20:16;;;;;;;9.63;4.90;;;;;;;21.02;40.31;100206.25;4962852;28;20235;-76
2023/06/14 04:22:45;;;;;;;12.20;4.97;;;;;;;21.00;39.98;100213.72;4963996;28;20711;-76
2023/06/14 04:25:13;;;;;;;10.00;5.57;;;;;;;21.01;40.01;100224.28;4962459;28;20949;-75
2023/06/14 04:27:41;;;;;;;11.57;6.03;;;;;;;21.04;40.07;100225.69;4963223;28;20269;-75
2023/06/14 04:30:09;;;;;;;7.00;4.77;;;;;;;21.07;40.39;100219.88;4964335;28;20953;-75
2023/06/14 04:32:39;;;;;;;8.57;4.73;;;;;;;20.99;40.65;100218.28;4962976;28;20313;-75
2023/06/14 04:35:08;;;;;;;8.10;4.70;;;;;;;20.98;40.32;100229.28;4959916;28;20210;-75
2023/06/14 04:37:39;;;;;;;11.00;5.43;;;;;;;21.01;40.46;100226.16;4960828;28;20207;-75
2023/06/14 04:40:09;;;;;;;7.80;5.03;;;;;;;21.06;40.40;100234.38;4964237;28;20723;-76
2023/06/14 04:42:40;;;;;;;12.73;5.83;;;;;;;21.08;40.40;100245.78;4964057;28;20294;-77
2023/06/14 04:45:09;;;;;;;6.87;4.37;;;;;;;21.15;40.00;100233.06;4958339;28;20650;-77
2023/06/14 04:47:39;;;;;;;12.23;5.07;;;;;;;21.22;39.61;100235.72;4965124;28;20214;-76
2023/06/14 04:50:07;;;;;;;9.60;5.00;;;;;;;21.26;39.90;100228.84;4962164;28;20254;-74
2023/06/14 04:52:35;;;;;;;14.13;4.90;;;;;;;21.27;40.05;100236.72;4959803;28;20211;-74
2023/06/14 04:55:03;;;;;;;10.37;4.80;;;;;;;21.24;39.76;100242.53;4964244;28;20545;-74
2023/06/14 04:57:32;;;;;;;14.90;5.47;;;;;;;21.25;40.16;100237.97;4962790;28;20210;-76
2023/06/14 05:00:00;;;;;;;9.80;5.20;;;;;;;21.27;40.40;100242.09;4963615;28;20260;-76
2023/06/14 05:02:30;;;;;;;8.60;4.27;;;;;;;21.31;40.07;100242.47;4962875;28;20664;-76
2023/06/14 05:05:01;;;;;;;11.30;4.47;;;;;;;21.34;39.75;100242.84;4962764;28;20321;-77
2023/06/14 05:07:29;;;;;;;8.63;4.87;;;;;;;21.37;39.49;100246.97;4964424;28;20226;-75
2023/06/14 05:09:56;;;;;;;7.57;4.73;;;;;;;21.37;39.71;100250.47;4963620;28;20246;-77
2023/06/14 05:12:25;;;;;;;8.30;5.07;;;;;;;21.41;39.99;100250.88;4964027;28;20342;-76
2023/06/14 05:14:52;;;;;;;7.97;5.00;;;;;;;21.42;39.67;100254.38;4964013;28;20205;-76
2023/06/14 05:17:20;;;;;;;8.33;4.77;;;;;;;21.40;40.53;100250.03;4963657;28;20210;-75
2023/06/14 05:19:48;;;;;;;9.77;4.67;;;;;;;21.45;40.10;100251.25;4965527;28;20282;-76
2023/06/14 05:22:20;;;;;;;9.47;4.57;;;;;;;21.50;40.21;100256.78;4962611;28;20242;-79
2023/06/14 05:24:48;;;;;;;7.10;4.50;;;;;;;21.52;40.36;100254.69;4962064;28;20326;-75
2023/06/14 05:27:18;;;;;;;8.13;5.27;;;;;;;21.50;40.11;100256.78;4962673;28;20230;-75
2023/06/14 05:29:45;;;;;;;9.23;4.77;;;;;;;21.53;39.78;100256.34;4959712;28;20214;-75
2023/06/14 05:32:16;;;;;;;8.07;4.83;;;;;;;21.56;40.25;100255.88;4966744;28;20309;-75
2023/06/14 05:34:44;;;;;;;10.03;4.60;;;;;;;21.60;39.69;100262.50;4965960;28;20246;-75
2023/06/14 05:37:16;;;;;;;14.47;4.90;;;;;;;21.64;39.56;100256.41;4964927;28;20246;-76
2023/06/14 05:39:48;;;;;;;11.90;4.20;;;;;;;21.71;39.93;100264.44;4963804;28;20340;-75
2023/06/14 05:42:20;;;;;;;9.17;4.57;;;;;;;21.78;40.13;100265.19;4964627;28;20265;-76
2023/06/14 05:44:48;;;;;;;7.30;4.50;;;;;;;21.80;39.76;100264.97;4963912;28;20269;-76
2023/06/14 05:47:17;;;;;;;12.27;4.90;;;;;;;21.84;39.96;100275.06;4963422;28;20246;-76
2023/06/14 05:49:45;;;;;;;12.60;5.30;;;;;;;21.85;40.50;100263.22;4969856;28;20727;-75
2023/06/14 05:52:12;;;;;;;11.13;5.53;;;;;;;21.90;39.93;100268.75;4967479;28;20263;-74
2023/06/14 05:54:41;;;;;;;9.83;4.80;;;;;;;21.93;39.72;100276.41;4970294;28;20226;-74
2023/06/14 05:57:11;;;;;;;12.43;5.37;;;;;;;21.98;39.48;100273.06;4974988;28;20669;-75
2023/06/14 05:59:40;;;;;;;8.40;4.63;;;;;;;21.99;39.85;100277.41;4967405;28;20207;-75
2023/06/14 06:02:08;;;;;;;12.67;4.87;;;;;;;22.01;39.56;100281.53;4968985;28;20238;-75
2023/06/14 06:04:35;;;;;;;6.40;4.27;;;;;;;22.02;39.36;100283.19;4967363;28;20214;-75
2023/06/14 06:07:05;;;;;;;9.00;4.93;;;;;;;22.05;40.64;100285.44;4971553;28;20215;-76
2023/06/14 06:09:35;;;;;;;8.83;4.73;;;;;;;22.08;39.93;100271.47;4966257;28;20314;-76
2023/06/14 06:12:08;;;;;;;8.60;4.37;;;;;;;22.12;40.24;100282.63;4971005;28;20219;-76
2023/06/14 06:14:40;;;;;;;9.07;4.70;;;;;;;22.19;39.98;100288.78;4969635;28;20281;-76
2023/06/14 06:17:11;;;;;;;16.63;5.33;;;;;;;22.21;40.31;100286.69;4964054;28;20202;-75
2023/06/14 06:19:39;;;;;;;7.67;4.63;;;;;;;22.24;40.84;100286.22;4962173;28;20265;-75
2023/06/14 06:22:10;;;;;;;13.73;4.67;;;;;;;22.28;40.04;100289.28;4964918;28;20305;-74
2023/06/14 06:24:39;;;;;;;8.27;4.47;;;;;;;22.29;39.54;100293.63;4967037;28;20328;-76
2023/06/14 06:27:10;;;;;;;6.50;4.17;;;;;;;22.32;40.15;100298.59;4963573;28;20238;-74
2023/06/14 06:29:37;;;;;;;8.00;4.67;;;;;;;22.37;39.88;100290.59;4960912;28;20265;-75
2023/06/14 06:32:10;;;;;;;8.27;4.53;;;;;;;22.39;39.46;100297.44;4963625;28;20621;-74
2023/06/14 06:34:40;;;;;;;9.88;4.80;;;;;;;22.38;40.49;100305.75;4965016;28;20211;-75
2023/06/14 06:37:08;;;;;;;13.70;4.20;;;;;;;22.47;39.37;100305.22;4961065;28;20249;-76
2023/06/14 06:39:36;;;;;;;7.60;4.40;;;;;;;22.45;40.08;100303.78;4964578;28;20976;-75
2023/06/14 06:42:11;;;;;;;8.60;4.23;;;;;;;22.47;39.74;100304.38;4959384;28;20241;-76
2023/06/14 06:44:41;;;;;;;9.70;4.80;;;;;;;22.55;38.76;100309.47;4964463;28;20212;-75
2023/06/14 06:47:11;;;;;;;6.67;4.27;;;;;;;22.58;39.33;100311.72;4967019;28;20296;-75
2023/06/14 06:49:38;;;;;;;7.07;4.67;;;;;;;22.59;39.27;100316.06;4966174;28;20399;-75
2023/06/14 06:52:07;;;;;;;11.53;4.70;;;;;;;22.63;40.04;100319.13;4960952;28;21003;-75
2023/06/14 06:54:35;;;;;;;13.97;4.90;;;;;;;22.76;39.01;100311.69;4968553;28;20290;-75
2023/06/14 06:57:03;;;;;;;12.70;4.40;;;;;;;22.77;39.06;100313.34;4965594;28;20240;-75
2023/06/14 06:59:31;;;;;;;6.63;4.27;;;;;;;22.83;38.61;100317.81;4970265;28;20269;-64
2023/06/14 07:01:59;;;;;;;7.90;3.97;;;;;;;22.83;38.38;100316.97;4967080;28;20236;-64
2023/06/14 07:04:28;;;;;;;11.20;4.50;;;;;;;22.91;37.57;100330.16;4963184;28;20214;-68
2023/06/14 07:06:56;;;;;;;35.88;5.13;;;;;;;23.00;37.15;100328.75;4963327;28;20214;-65
2023/06/14 07:09:24;;;;;;;7.10;4.20;;;;;;;23.19;36.86;100321.38;4963490;28;20211;-62
2023/06/14 07:11:52;;;;;;;12.18;3.85;;;;;;;23.33;36.58;100339.03;4971103;28;20207;-64
2023/06/14 07:14:22;;;;;;;19.83;4.53;;;;;;;23.44;36.24;100332.81;4972428;28;20662;-63
2023/06/14 07:16:50;;;;;;;7.22;4.00;;;;;;;23.48;36.03;100336.69;4970994;28;20634;-63
2023/06/14 07:19:18;;;;;;;6.43;4.05;;;;;;;23.49;35.85;100341.06;4974338;28;20226;-63
2023/06/14 07:21:47;;;;;;;9.32;4.22;;;;;;;23.48;36.03;100334.00;4970209;28;20231;-62
2023/06/14 07:24:15;;;;;;;6.80;4.43;;;;;;;23.45;35.98;100341.75;4961726;28;20242;-64
2023/06/14 07:26:43;;;;;;;10.55;4.05;;;;;;;23.51;35.88;100344.34;4962174;28;20306;-63
2023/06/14 07:29:11;;;;;;;8.55;4.22;;;;;;;23.57;35.93;100342.59;4968782;28;20226;-64
2023/06/14 07:31:38;;;;;;;7.05;4.20;;;;;;;23.62;35.92;100348.94;4965677;28;20203;-64
2023/06/14 07:34:06;;;;;;;11.35;4.25;;;;;;;23.59;36.15;100344.00;4965494;28;20266;-66
2023/06/14 07:36:34;;;;;;;7.88;4.13;;;;;;;23.72;35.88;100350.25;4970577;28;20207;-65
2023/06/14 07:39:05;;;;;;;9.52;3.95;;;;;;;23.73;35.73;100351.88;4968373;28;20210;-68
2023/06/14 07:41:33;;;;;;;6.35;3.95;;;;;;;23.73;35.81;100350.00;4966551;28;21014;-66
2023/06/14 07:44:01;;;;;;;6.72;3.60;;;;;;;23.75;35.62;100347.06;4972339;28;20242;-69
2023/06/14 07:46:29;;;;;;;7.32;4.28;;;;;;;23.83;35.61;100354.81;4966506;28;20217;-65
2023/06/14 07:48:56;;;;;;;8.70;3.90;;;;;;;23.91;35.41;100357.16;4964595;28;20215;-63
2023/06/14 07:51:24;;;;;;;10.27;3.72;;;;;;;24.11;36.10;100357.56;4966716;28;20294;-66
2023/06/14 07:53:52;;;;;;;10.52;4.13;;;;;;;24.12;36.21;100353.81;4974080;28;20644;-67
2023/06/14 07:56:21;;;;;;;11.40;4.00;;;;;;;24.10;36.55;100350.50;4962346;28;20243;-69
2023/06/14 07:58:49;;;;;;;6.57;4.10;;;;;;;24.14;36.67;100351.69;4961921;28;20214;-69
2023/06/14 08:01:16;;;;;;;9.18;4.20;;;;;;;24.15;36.45;100353.34;4954966;28;20310;-67
2023/06/14 08:03:44;;;;;;;7.10;3.80;;;;;;;24.21;36.70;100343.44;4964102;28;20246;-67
2023/06/14 08:06:12;;;;;;;10.45;4.10;;;;;;;24.26;36.19;100348.97;4958604;28;20785;-71
2023/06/14 08:08:42;;;;;;;8.95;4.60;;;;;;;24.33;36.16;100355.91;4960256;28;20226;-67
2023/06/14 08:11:10;;;;;;;8.13;4.22;;;;;;;24.40;36.02;100354.94;4970889;28;20207;-68
2023/06/14 08:13:39;;;;;;;10.82;4.20;;;;;;;24.46;36.16;100356.66;4970093;28;20287;-68
2023/06/14 08:16:06;;;;;;;6.63;3.95;;;;;;;24.50;36.42;100355.94;4967176;28;20222;-67
2023/06/14 08:18:34;;;;;;;6.80;3.95;;;;;;;24.54;35.55;100348.97;4959656;28;20211;-76
2023/06/14 08:21:02;;;;;;;14.57;4.60;;;;;;;24.57;35.55;100340.34;4967363;28;20203;-68
2023/06/14 20:01:41;;;;;;;4.85;2.97;;;;;;;24.21;36.18;100460.75;4729138;30;20218;-69
2023/06/14 22:54:32;;;;;;;6.83;2.63;;;;;;;22.83;39.13;100544.06;4740715;29;20283;-72
2023/06/14 23:05:00;;;;;;;4.43;2.93;;;;;;;22.71;39.83;100541.25;4783623;29;20250;-72
